Time;durP1;ratioP1;P1;durP2;ratioP2;P2;SDS_P1;SDS_P2;PMS_P1;PMS_P2;Temp;Humidity;BMP_temperature;BMP_pressure;BME280_temperature;BME280_humidity;BME280_pressure;Samples;Min_cycle;Max_cycle;Signal;HPM_P1;HPM_P2
2022/06/14 00:03:02;;;;;;;1.50;1.10;;;13.90;92.20;;;;;;5035965;28;20553;-77
2022/06/14 00:05:30;;;;;;;1.43;1.00;;;13.80;91.60;;;;;;5030729;28;20484;-76
2022/06/14 00:07:58;;;;;;;1.47;1.00;;;13.80;91.70;;;;;;5029078;28;20832;-76
2022/06/14 00:10:25;;;;;;;1.50;1.00;;;13.80;91.90;;;;;;5049380;28;20977;-76
2022/06/14 00:12:52;;;;;;;1.50;1.00;;;13.70;92.50;;;;;;5038176;28;20485;-77
2022/06/14 00:15:19;;;;;;;1.50;1.00;;;13.70;91.90;;;;;;5050162;28;20482;-76
2022/06/14 00:17:46;;;;;;;1.50;1.10;;;13.70;92.40;;;;;;5010025;28;20523;-76
2022/06/14 00:20:13;;;;;;;1.50;1.00;;;13.70;92.40;;;;;;5020264;28;20466;-77
2022/06/14 00:22:41;;;;;;;1.50;1.00;;;13.70;93.00;;;;;;5039830;28;21019;-76
2022/06/14 00:25:23;;;;;;;1.50;1.00;;;13.60;92.20;;;;;;5050536;28;20537;-77
2022/06/14 00:27:50;;;;;;;1.50;1.20;;;13.60;92.60;;;;;;5007788;28;20476;-77
2022/06/14 00:30:17;;;;;;;1.50;1.07;;;13.60;93.10;;;;;;5032131;28;20466;-77
2022/06/14 00:32:44;;;;;;;1.50;1.10;;;13.60;93.20;;;;;;5029415;28;20456;-77
2022/06/14 00:35:11;;;;;;;1.50;1.00;;;13.60;93.00;;;;;;5039846;28;20994;-77
2022/06/14 00:37:37;;;;;;;1.43;1.07;;;13.60;93.30;;;;;;5023146;28;20499;-76
2022/06/14 00:40:08;;;;;;;1.50;1.10;;;13.60;93.30;;;;;;5043501;28;20485;-77
2022/06/14 00:42:35;;;;;;;1.43;1.00;;;13.50;93.40;;;;;;5033253;28;20514;-76
2022/06/14 00:45:07;;;;;;;1.50;1.00;;;13.60;92.80;;;;;;5049695;28;20488;-77
2022/06/14 00:47:38;;;;;;;1.50;1.00;;;13.50;93.80;;;;;;5019323;28;20714;-76
2022/06/14 00:50:08;;;;;;;1.50;1.10;;;13.50;93.90;;;;;;5020933;28;20949;-76
2022/06/14 00:52:38;;;;;;;1.50;1.10;;;13.50;93.80;;;;;;5022924;28;20494;-76
2022/06/14 00:55:12;;;;;;;1.50;1.10;;;13.50;94.10;;;;;;5045724;28;20496;-77
2022/06/14 00:57:42;;;;;;;1.50;1.10;;;13.50;93.70;;;;;;5031470;28;20467;-77
2022/06/14 01:00:12;;;;;;;1.47;1.00;;;13.50;95.00;;;;;;5030485;28;20475;-77
2022/06/14 01:02:44;;;;;;;1.50;1.10;;;13.40;94.50;;;;;;5026310;28;20482;-77
2022/06/14 01:05:17;;;;;;;1.43;1.00;;;13.40;94.60;;;;;;5029808;28;20484;-77
2022/06/14 01:07:49;;;;;;;1.50;1.10;;;13.40;95.30;;;;;;5034121;28;20786;-76
2022/06/14 01:10:24;;;;;;;1.50;1.00;;;13.40;95.40;;;;;;5020724;28;20576;-77
2022/06/14 01:12:55;;;;;;;1.47;1.00;;;13.30;95.10;;;;;;5022418;28;20464;-77
2022/06/14 01:15:26;;;;;;;1.50;1.10;;;13.30;95.50;;;;;;5018336;28;20506;-77
2022/06/14 01:18:00;;;;;;;1.50;1.00;;;13.30;94.40;;;;;;5023958;28;20470;-77
2022/06/14 01:20:27;;;;;;;1.50;1.10;;;13.30;94.90;;;;;;5020586;28;20532;-77
2022/06/14 01:22:56;;;;;;;1.50;1.00;;;13.20;94.50;;;;;;5022405;28;20483;-77
2022/06/14 01:25:25;;;;;;;1.47;1.00;;;13.20;95.40;;;;;;5038849;28;20493;-77
2022/06/14 01:27:53;;;;;;;1.50;1.07;;;13.20;94.90;;;;;;5012188;28;20490;-78
2022/06/14 01:30:23;;;;;;;1.50;1.00;;;13.10;94.50;;;;;;5034235;28;20491;-77
2022/06/14 01:32:52;;;;;;;1.50;1.00;;;13.10;95.00;;;;;;5033826;28;20490;-77
2022/06/14 01:35:22;;;;;;;1.50;1.10;;;13.10;95.20;;;;;;5032146;28;20482;-77
2022/06/14 01:37:52;;;;;;;1.50;1.00;;;13.00;94.70;;;;;;5027035;28;20467;-76
2022/06/14 01:40:24;;;;;;;1.50;1.03;;;13.00;94.40;;;;;;5024727;28;20527;-78
2022/06/14 01:43:08;;;;;;;1.50;1.10;;;13.00;95.70;;;;;;5017311;28;20483;-75
2022/06/14 01:45:42;;;;;;;1.50;1.10;;;13.00;95.50;;;;;;5023766;28;20634;-76
2022/06/14 01:48:20;;;;;;;1.47;1.03;;;12.90;95.40;;;;;;5027515;28;20531;-75
2022/06/14 01:53:50;;;;;;;1.50;1.10;;;12.90;96.10;;;;;;5022646;28;20862;-75
2022/06/14 01:56:24;;;;;;;1.47;1.10;;;12.90;95.90;;;;;;5028572;28;20479;-75
2022/06/14 01:59:00;;;;;;;1.50;1.03;;;12.90;96.50;;;;;;5048027;28;20823;-75
2022/06/14 02:01:33;;;;;;;1.47;1.00;;;12.90;95.80;;;;;;5028206;28;20492;-75
2022/06/14 02:07:02;;;;;;;1.50;1.10;;;12.70;96.00;;;;;;5028050;28;20443;-75
2022/06/14 02:09:37;;;;;;;1.50;1.10;;;12.70;95.90;;;;;;5028526;28;20471;-74
2022/06/14 02:12:09;;;;;;;1.50;1.10;;;12.70;95.70;;;;;;5014301;28;20481;-75
2022/06/14 02:14:40;;;;;;;1.40;1.10;;;12.70;95.50;;;;;;5030828;28;20489;-75
2022/06/14 02:17:13;;;;;;;1.50;1.10;;;12.70;95.80;;;;;;5020260;28;20481;-75
2022/06/14 02:19:45;;;;;;;1.50;1.10;;;12.60;95.90;;;;;;5016689;28;20840;-76
2022/06/14 02:22:15;;;;;;;1.47;1.00;;;12.60;96.40;;;;;;5016385;28;20866;-76
2022/06/14 02:24:45;;;;;;;1.50;1.10;;;12.60;96.40;;;;;;5027688;28;20479;-77
2022/06/14 02:27:18;;;;;;;1.50;1.07;;;12.60;96.10;;;;;;5036535;28;20463;-77
2022/06/14 02:29:50;;;;;;;1.50;1.10;;;12.60;96.20;;;;;;5021944;28;20466;-76
2022/06/14 02:32:22;;;;;;;1.50;1.10;;;12.60;96.00;;;;;;5026009;28;20830;-77
2022/06/14 02:34:51;;;;;;;1.50;1.10;;;12.50;96.30;;;;;;5028607;28;20482;-77
2022/06/14 02:37:21;;;;;;;1.47;1.10;;;12.50;96.10;;;;;;5042349;28;20454;-77
2022/06/14 02:39:55;;;;;;;1.47;1.10;;;12.50;97.00;;;;;;5029412;28;20839;-77
2022/06/14 02:42:28;;;;;;;1.47;1.10;;;12.50;97.00;;;;;;5022888;28;20483;-77
2022/06/14 02:45:00;;;;;;;1.50;1.10;;;12.50;96.50;;;;;;5028638;28;20510;-76
2022/06/14 02:47:31;;;;;;;1.50;1.10;;;12.50;96.90;;;;;;5036601;28;20506;-77
2022/06/14 02:50:04;;;;;;;1.50;1.10;;;12.50;96.50;;;;;;5015856;28;20468;-76
2022/06/14 02:52:35;;;;;;;1.50;1.10;;;12.40;96.20;;;;;;5023204;28;20483;-76
2022/06/14 02:55:08;;;;;;;1.50;1.07;;;12.40;96.90;;;;;;5034868;28;20487;-77
2022/06/14 02:57:43;;;;;;;1.43;1.10;;;12.40;96.10;;;;;;5034385;28;20998;-77
2022/06/14 03:00:14;;;;;;;1.47;1.07;;;12.40;97.50;;;;;;5032135;28;20481;-77
2022/06/14 03:02:45;;;;;;;1.50;1.10;;;12.30;97.60;;;;;;5025341;28;20854;-76
2022/06/14 03:05:19;;;;;;;1.50;1.10;;;12.30;98.20;;;;;;5031287;28;20479;-76
2022/06/14 03:07:56;;;;;;;1.50;1.10;;;12.30;97.20;;;;;;5006811;28;20514;-76
2022/06/14 03:10:26;;;;;;;1.43;1.10;;;12.30;97.50;;;;;;5030758;28;20797;-77
2022/06/14 03:13:03;;;;;;;1.43;1.10;;;12.30;97.40;;;;;;5016472;28;21039;-76
2022/06/14 03:15:37;;;;;;;1.50;1.10;;;12.30;97.80;;;;;;5031613;28;20521;-77
2022/06/14 03:18:12;;;;;;;1.50;1.10;;;12.20;97.70;;;;;;5012484;28;20477;-77
2022/06/14 03:20:49;;;;;;;1.47;1.10;;;12.20;97.80;;;;;;5024946;28;20484;-77
2022/06/14 03:23:22;;;;;;;1.50;1.20;;;12.20;98.20;;;;;;5043327;28;20499;-77
2022/06/14 03:25:56;;;;;;;1.50;1.10;;;12.20;97.70;;;;;;5039277;28;20465;-77
2022/06/14 03:28:29;;;;;;;1.50;1.03;;;12.20;97.50;;;;;;5034572;28;20458;-77
2022/06/14 03:31:04;;;;;;;1.50;1.10;;;12.20;97.60;;;;;;5044256;28;20471;-78
2022/06/14 03:33:39;;;;;;;1.47;1.10;;;12.20;98.20;;;;;;5050167;28;20470;-77
2022/06/14 03:36:10;;;;;;;1.50;1.00;;;12.10;98.20;;;;;;5043281;28;20454;-77
2022/06/14 03:38:41;;;;;;;1.50;1.00;;;12.10;98.20;;;;;;5029815;28;20472;-76
2022/06/14 03:41:10;;;;;;;1.50;1.10;;;12.10;98.20;;;;;;5020210;28;20475;-77
2022/06/14 03:43:39;;;;;;;1.50;1.10;;;12.00;97.60;;;;;;5042602;28;20827;-75
2022/06/14 03:46:14;;;;;;;1.50;1.10;;;12.00;97.80;;;;;;5030645;28;20463;-76
2022/06/14 03:48:43;;;;;;;1.50;1.00;;;12.00;98.20;;;;;;5022063;28;20466;-76
2022/06/14 03:51:18;;;;;;;1.47;1.10;;;12.00;98.20;;;;;;5019442;28;20471;-76
2022/06/14 03:53:57;;;;;;;1.50;1.07;;;12.00;98.20;;;;;;5046201;28;20477;-77
2022/06/14 03:56:41;;;;;;;1.50;1.10;;;12.00;98.10;;;;;;5033063;28;20493;-76
2022/06/14 03:59:24;;;;;;;1.47;1.00;;;12.00;98.20;;;;;;5040695;28;20484;-77
2022/06/14 04:01:58;;;;;;;1.50;1.10;;;12.00;98.20;;;;;;5032125;28;20486;-77
2022/06/14 04:04:41;;;;;;;1.50;1.10;;;12.00;98.20;;;;;;5036758;28;20479;-77
2022/06/14 04:07:20;;;;;;;1.47;1.00;;;12.00;98.20;;;;;;5020504;28;20474;-76
2022/06/14 04:09:53;;;;;;;1.50;1.10;;;12.00;98.20;;;;;;5049904;28;20463;-76
2022/06/14 04:12:28;;;;;;;1.50;1.10;;;12.00;98.20;;;;;;5027456;28;20486;-77
2022/06/14 04:15:09;;;;;;;1.50;1.10;;;12.00;98.20;;;;;;5032530;28;20543;-76
2022/06/14 04:17:46;;;;;;;1.50;1.10;;;12.00;98.20;;;;;;5024107;28;20487;-76
2022/06/14 04:20:20;;;;;;;1.47;1.10;;;12.00;98.20;;;;;;5018872;28;20977;-76
2022/06/14 04:25:24;;;;;;;1.50;1.10;;;12.10;98.20;;;;;;5027032;28;20689;-75
2022/06/14 04:27:58;;;;;;;1.50;1.10;;;12.10;98.20;;;;;;5031316;28;20485;-74
2022/06/14 04:30:35;;;;;;;1.47;1.10;;;12.20;98.20;;;;;;5030512;28;20966;-74
2022/06/14 04:33:09;;;;;;;1.43;1.07;;;12.20;98.20;;;;;;5030278;28;20470;-76
2022/06/14 04:35:43;;;;;;;1.47;1.07;;;12.20;98.20;;;;;;5029687;28;20459;-74
2022/06/14 04:38:13;;;;;;;1.47;1.00;;;12.30;98.20;;;;;;5020666;28;20479;-74
2022/06/14 04:40:44;;;;;;;1.47;1.00;;;12.40;98.20;;;;;;5028006;28;21010;-76
2022/06/14 04:43:15;;;;;;;1.50;1.00;;;12.50;98.20;;;;;;5029446;28;20498;-75
2022/06/14 04:45:48;;;;;;;1.47;1.00;;;12.70;98.20;;;;;;5023632;28;20674;-75
2022/06/14 04:48:19;;;;;;;1.50;1.10;;;12.90;98.20;;;;;;5016873;28;20478;-76
2022/06/14 04:50:50;;;;;;;1.50;1.00;;;13.10;98.20;;;;;;5012069;28;20459;-75
2022/06/14 04:53:21;;;;;;;1.50;1.10;;;13.40;98.20;;;;;;5035111;28;20480;-76
2022/06/14 04:55:54;;;;;;;1.50;0.97;;;13.50;98.20;;;;;;5019510;28;20467;-73
2022/06/14 04:58:26;;;;;;;1.50;1.00;;;13.80;97.80;;;;;;5042892;28;20455;-74
2022/06/14 05:00:57;;;;;;;1.50;1.00;;;14.10;97.40;;;;;;5017738;28;20467;-76
2022/06/14 05:03:28;;;;;;;1.50;1.00;;;14.30;96.80;;;;;;5026675;28;20495;-75
2022/06/14 05:06:01;;;;;;;1.50;1.00;;;14.60;96.40;;;;;;5020443;28;20561;-76
2022/06/14 05:08:31;;;;;;;1.50;1.00;;;14.70;96.30;;;;;;5041624;28;20463;-74
2022/06/14 05:11:05;;;;;;;1.50;0.90;;;15.00;96.10;;;;;;5028429;28;20463;-75
2022/06/14 05:13:41;;;;;;;1.50;0.90;;;15.20;94.50;;;;;;5022524;28;20491;-75
2022/06/14 05:16:13;;;;;;;1.50;1.00;;;15.50;94.10;;;;;;5023318;28;20482;-76
2022/06/14 05:18:47;;;;;;;1.50;1.00;;;15.70;92.80;;;;;;5037281;28;20471;-74
2022/06/14 05:21:20;;;;;;;1.50;1.00;;;15.70;92.80;;;;;;5011584;28;20569;-77
2022/06/14 05:23:49;;;;;;;1.50;1.00;;;15.90;91.90;;;;;;5039918;28;20594;-75
2022/06/14 05:26:25;;;;;;;1.47;1.00;;;16.00;91.40;;;;;;5027199;28;20815;-75
2022/06/14 05:29:03;;;;;;;1.50;0.90;;;16.20;90.90;;;;;;5026439;28;20485;-74
2022/06/14 05:31:38;;;;;;;1.50;0.90;;;16.40;90.40;;;;;;5021009;28;20477;-74
2022/06/14 05:34:11;;;;;;;1.50;0.90;;;16.60;90.00;;;;;;5035551;28;20479;-75
2022/06/14 05:36:43;;;;;;;1.47;0.90;;;16.80;89.90;;;;;;5024380;28;20486;-75
2022/06/14 05:39:17;;;;;;;1.50;0.90;;;17.10;88.50;;;;;;5035943;28;20946;-76
2022/06/14 05:41:47;;;;;;;1.40;0.90;;;17.20;88.80;;;;;;5031564;28;20461;-75
2022/06/14 05:44:20;;;;;;;1.50;0.90;;;17.40;88.50;;;;;;5027373;28;20694;-75
2022/06/14 05:46:52;;;;;;;1.50;0.90;;;17.60;88.00;;;;;;5027245;28;20493;-76
2022/06/14 05:49:22;;;;;;;1.50;0.90;;;17.60;87.60;;;;;;5027377;28;20734;-76
2022/06/14 05:51:54;;;;;;;1.40;0.90;;;17.70;87.60;;;;;;5019757;28;20539;-75
2022/06/14 05:54:27;;;;;;;1.50;0.90;;;17.90;87.20;;;;;;5027140;28;20486;-76
2022/06/14 05:57:02;;;;;;;1.43;0.90;;;17.90;86.60;;;;;;5028006;28;20875;-75
2022/06/14 05:59:35;;;;;;;1.40;0.90;;;17.90;86.30;;;;;;5027706;28;20466;-75
2022/06/14 06:02:13;;;;;;;1.50;1.00;;;17.90;86.50;;;;;;5025504;28;20505;-75
2022/06/14 06:04:46;;;;;;;1.50;1.00;;;18.00;86.50;;;;;;5031104;28;20498;-75
2022/06/14 06:07:18;;;;;;;1.50;0.90;;;18.20;86.10;;;;;;5028222;28;20489;-75
2022/06/14 06:09:50;;;;;;;1.50;0.90;;;18.40;85.40;;;;;;5030964;28;20481;-75
2022/06/14 06:12:23;;;;;;;1.47;0.90;;;18.60;84.70;;;;;;5028537;28;20487;-75
2022/06/14 06:14:54;;;;;;;1.50;0.90;;;18.80;85.90;;;;;;5023633;28;21005;-76
2022/06/14 06:17:28;;;;;;;1.47;0.90;;;18.90;84.90;;;;;;5033550;28;20561;-75
2022/06/14 06:20:03;;;;;;;1.50;0.90;;;19.10;83.90;;;;;;5018349;28;20464;-77
2022/06/14 06:22:36;;;;;;;1.50;0.90;;;19.40;83.50;;;;;;5031713;28;20486;-76
2022/06/14 06:25:07;;;;;;;1.47;0.90;;;19.60;83.40;;;;;;5031286;28;20495;-75
2022/06/14 06:27:39;;;;;;;1.50;1.00;;;19.90;81.60;;;;;;5033686;28;20486;-76
2022/06/14 06:30:14;;;;;;;1.50;0.97;;;20.10;81.30;;;;;;5030462;28;20467;-75
2022/06/14 06:32:42;;;;;;;1.47;0.90;;;20.40;80.60;;;;;;5030401;28;20473;-75
2022/06/14 06:35:11;;;;;;;1.47;0.90;;;20.50;80.80;;;;;;5029526;28;20467;-75
2022/06/14 06:37:41;;;;;;;1.50;0.90;;;20.50;81.30;;;;;;5031543;28;20470;-77
2022/06/14 06:40:15;;;;;;;1.40;0.90;;;20.70;80.80;;;;;;5030722;28;20473;-78
2022/06/14 06:42:46;;;;;;;1.47;0.83;;;21.00;80.00;;;;;;5034049;28;20486;-76
2022/06/14 06:45:17;;;;;;;1.47;0.90;;;21.20;79.80;;;;;;5023869;28;20469;-77
2022/06/14 06:47:52;;;;;;;1.43;0.90;;;21.30;79.40;;;;;;5031285;28;20954;-77
2022/06/14 06:50:23;;;;;;;1.50;0.90;;;21.40;78.40;;;;;;5028795;28;20869;-77
2022/06/14 06:53:01;;;;;;;1.47;0.90;;;21.60;77.80;;;;;;5026753;28;20495;-76
2022/06/14 06:55:36;;;;;;;1.47;0.90;;;21.70;76.60;;;;;;5027300;28;20513;-77
2022/06/14 06:58:09;;;;;;;1.50;0.90;;;21.80;76.20;;;;;;5026780;28;20465;-76
2022/06/14 07:00:38;;;;;;;1.50;0.90;;;21.90;76.60;;;;;;5029914;28;20483;-77
2022/06/14 07:03:14;;;;;;;1.50;0.90;;;22.00;76.80;;;;;;5033657;28;20487;-77
2022/06/14 07:05:42;;;;;;;1.50;0.90;;;22.00;75.80;;;;;;5030605;28;20465;-78
2022/06/14 07:08:17;;;;;;;1.50;0.90;;;22.00;76.30;;;;;;5036407;28;20491;-76
2022/06/14 07:10:51;;;;;;;1.50;0.90;;;22.10;76.50;;;;;;5030757;28;20462;-78
2022/06/14 07:13:24;;;;;;;1.50;0.90;;;22.30;74.80;;;;;;5030592;28;20490;-77
2022/06/14 07:15:56;;;;;;;1.50;0.90;;;22.50;75.10;;;;;;5028661;28;20572;-77
2022/06/14 07:18:28;;;;;;;1.40;0.90;;;22.60;73.30;;;;;;5025765;28;20521;-77
2022/06/14 07:21:03;;;;;;;1.50;0.90;;;22.90;74.10;;;;;;5014672;28;20474;-77
2022/06/14 07:23:38;;;;;;;1.47;0.90;;;23.00;72.90;;;;;;5028615;28;20498;-77
2022/06/14 07:26:21;;;;;;;1.43;0.90;;;23.10;72.40;;;;;;5024061;28;20982;-76
2022/06/14 07:28:56;;;;;;;1.47;0.80;;;23.20;71.80;;;;;;5040666;28;21114;-77
2022/06/14 07:31:28;;;;;;;1.47;0.80;;;22.90;71.70;;;;;;5031359;28;20454;-77
2022/06/14 07:33:58;;;;;;;1.50;0.90;;;22.80;70.90;;;;;;5029210;28;20479;-77
2022/06/14 07:36:31;;;;;;;1.50;0.90;;;22.70;71.80;;;;;;5031236;28;20981;-77
2022/06/14 07:39:06;;;;;;;1.47;0.90;;;22.80;72.40;;;;;;5030504;28;20474;-77
2022/06/14 07:41:41;;;;;;;1.47;0.87;;;22.80;70.80;;;;;;5022339;28;20857;-77
2022/06/14 07:44:18;;;;;;;1.50;0.87;;;22.80;71.80;;;;;;5036771;28;20497;-77
2022/06/14 07:46:54;;;;;;;1.47;0.90;;;22.70;72.70;;;;;;5031089;28;20521;-79
2022/06/14 07:49:29;;;;;;;1.43;0.87;;;22.80;72.10;;;;;;5022306;28;20460;-78
2022/06/14 07:52:02;;;;;;;1.43;0.80;;;22.90;73.60;;;;;;5030680;28;20473;-78
2022/06/14 07:54:35;;;;;;;1.40;0.90;;;23.10;73.10;;;;;;5029879;28;20483;-77
2022/06/14 07:57:08;;;;;;;1.47;0.80;;;23.40;73.20;;;;;;5033314;28;20497;-77
2022/06/14 07:59:42;;;;;;;1.43;0.90;;;23.40;70.90;;;;;;5034361;28;20757;-77
2022/06/14 08:02:18;;;;;;;1.50;0.90;;;23.50;71.50;;;;;;5030747;28;20933;-77
2022/06/14 08:04:53;;;;;;;1.47;0.90;;;23.80;69.20;;;;;;5032846;28;21029;-77
2022/06/14 08:07:21;;;;;;;1.50;0.87;;;24.00;68.60;;;;;;5034468;28;20478;-77
2022/06/14 08:09:56;;;;;;;1.40;0.90;;;24.10;69.00;;;;;;5033029;28;20463;-77
2022/06/14 08:12:30;;;;;;;1.47;0.90;;;24.00;68.60;;;;;;5024093;28;20518;-77
2022/06/14 08:15:01;;;;;;;1.50;0.90;;;23.80;67.90;;;;;;5028144;28;20490;-77
2022/06/14 08:17:35;;;;;;;1.50;0.90;;;23.50;69.40;;;;;;5032911;28;20482;-77
2022/06/14 08:20:09;;;;;;;1.47;0.87;;;23.30;70.40;;;;;;5018261;28;20460;-78
2022/06/14 08:22:40;;;;;;;1.47;0.87;;;23.10;70.10;;;;;;5032797;28;20570;-77
2022/06/14 08:25:13;;;;;;;1.40;0.90;;;22.80;70.20;;;;;;5029624;28;20482;-76
2022/06/14 08:27:45;;;;;;;1.50;0.90;;;22.60;69.60;;;;;;5029234;28;20488;-77
2022/06/14 08:30:17;;;;;;;1.47;0.90;;;22.60;68.50;;;;;;5028143;28;20470;-77
2022/06/14 08:32:51;;;;;;;1.47;0.90;;;22.70;70.20;;;;;;5029546;28;20501;-77
2022/06/14 08:35:23;;;;;;;1.43;0.90;;;23.00;70.60;;;;;;5029787;28;20471;-77
2022/06/14 08:37:54;;;;;;;1.43;0.90;;;23.40;69.10;;;;;;5029003;28;20473;-77
2022/06/14 08:40:40;;;;;;;1.50;0.87;;;23.80;67.90;;;;;;5029415;28;20480;-78
2022/06/14 08:43:10;;;;;;;1.43;0.90;;;24.20;67.20;;;;;;5024870;28;20487;-77
2022/06/14 08:45:40;;;;;;;1.87;1.57;;;24.50;64.00;;;;;;5028221;28;20459;-77
2022/06/14 08:48:14;;;;;;;1.50;0.90;;;24.70;65.40;;;;;;5032937;28;20501;-77
2022/06/14 08:51:11;;;;;;;1.50;0.90;;;24.80;64.70;;;;;;5021533;28;20521;-78
2022/06/14 08:54:22;;;;;;;1.50;0.80;;;25.00;62.40;;;;;;5019626;28;20471;-78
2022/06/14 08:57:04;;;;;;;1.50;0.80;;;25.00;63.70;;;;;;5023950;28;20470;-78
2022/06/14 09:00:04;;;;;;;1.40;0.80;;;25.10;64.10;;;;;;5033561;28;20561;-77
2022/06/14 09:03:04;;;;;;;1.47;0.90;;;25.40;64.70;;;;;;5025195;28;20877;-77
2022/06/14 09:05:55;;;;;;;1.50;0.90;;;25.50;61.30;;;;;;5024440;28;20487;-78
2022/06/14 09:08:57;;;;;;;1.43;0.80;;;25.80;60.60;;;;;;5018089;28;20482;-79
2022/06/14 09:12:03;;;;;;;1.40;0.90;;;26.00;60.80;;;;;;5022111;28;20492;-79
2022/06/14 09:15:00;;;;;;;1.60;1.17;;;25.90;59.80;;;;;;5031581;28;20509;-80
2022/06/14 09:17:57;;;;;;;1.50;0.80;;;25.50;61.00;;;;;;5036671;28;20455;-80
2022/06/14 09:20:33;;;;;;;1.90;1.00;;;25.60;61.30;;;;;;5021354;28;20470;-80
2022/06/14 09:23:15;;;;;;;1.47;0.80;;;25.60;61.80;;;;;;5023399;28;20773;-80
2022/06/14 09:26:11;;;;;;;1.43;0.80;;;25.80;60.30;;;;;;5031135;28;20517;-81
2022/06/14 09:29:07;;;;;;;1.40;0.90;;;25.80;60.80;;;;;;5032275;28;20600;-80
2022/06/14 09:31:47;;;;;;;1.50;0.80;;;25.90;61.30;;;;;;5029374;28;20902;-80
2022/06/14 09:34:44;;;;;;;1.43;0.80;;;26.00;63.50;;;;;;5037647;28;20487;-81
2022/06/14 09:37:35;;;;;;;1.47;0.90;;;26.30;63.50;;;;;;5035037;28;20520;-80
2022/06/14 09:40:30;;;;;;;1.43;0.80;;;26.50;62.80;;;;;;5032791;28;20474;-80
2022/06/14 09:43:26;;;;;;;1.43;0.80;;;26.60;62.90;;;;;;4998919;28;20474;-80
2022/06/14 09:46:09;;;;;;;1.40;0.80;;;26.80;59.70;;;;;;5030591;28;20862;-81
2022/06/14 09:49:10;;;;;;;1.47;0.80;;;27.00;61.30;;;;;;5029074;28;20474;-81
2022/06/14 09:52:08;;;;;;;1.47;0.80;;;27.20;60.00;;;;;;5021039;28;20582;-81
2022/06/14 09:55:11;;;;;;;1.47;0.80;;;27.50;59.10;;;;;;5036248;28;20998;-80
2022/06/14 09:57:56;;;;;;;1.50;0.80;;;27.70;58.30;;;;;;5034968;28;20454;-80
2022/06/14 10:00:33;;;;;;;1.47;0.90;;;27.80;58.20;;;;;;5033250;28;20512;-81
2022/06/14 10:03:53;;;;;;;1.43;0.80;;;27.70;60.50;;;;;;5035724;28;21011;-81
2022/06/14 10:06:42;;;;;;;1.47;0.80;;;27.80;58.20;;;;;;4979545;28;20499;-78
2022/06/14 10:09:24;;;;;;;1.43;0.80;;;28.00;58.80;;;;;;5027939;28;20864;-81
2022/06/14 10:12:20;;;;;;;1.43;0.80;;;28.20;60.20;;;;;;5032994;28;20527;-80
2022/06/14 10:14:56;;;;;;;1.40;0.80;;;28.30;58.50;;;;;;5027522;28;20908;-78
2022/06/14 10:17:51;;;;;;;1.47;0.80;;;28.40;57.40;;;;;;5034432;28;20484;-80
2022/06/14 10:20:38;;;;;;;1.47;0.87;;;28.60;55.10;;;;;;5018576;28;20813;-81
2022/06/14 10:23:18;;;;;;;1.43;0.80;;;28.60;56.40;;;;;;5031877;28;20480;-81
2022/06/14 10:28:54;;;;;;;1.43;0.80;;;28.70;57.70;;;;;;5043191;28;21025;-81
2022/06/14 10:31:29;;;;;;;1.47;0.80;;;28.90;57.90;;;;;;5022654;28;20580;-79
2022/06/14 10:34:05;;;;;;;1.47;0.80;;;29.10;58.60;;;;;;5029601;28;20483;-79
2022/06/14 10:36:46;;;;;;;1.43;0.80;;;29.10;58.40;;;;;;5032165;28;20462;-80
2022/06/14 10:39:50;;;;;;;1.47;0.80;;;29.00;56.80;;;;;;5031487;28;20458;-80
2022/06/14 10:42:24;;;;;;;1.43;0.80;;;28.80;59.20;;;;;;5004250;28;20481;-80
2022/06/14 10:45:01;;;;;;;2.10;1.90;;;28.90;59.40;;;;;;5037826;28;20851;-80
2022/06/14 10:47:42;;;;;;;1.43;0.80;;;29.00;57.60;;;;;;5035587;28;20508;-82
2022/06/14 10:50:39;;;;;;;1.43;0.80;;;29.10;57.70;;;;;;5024212;28;20455;-80
2022/06/14 10:53:24;;;;;;;1.50;0.80;;;28.90;57.50;;;;;;5042324;28;20844;-81
2022/06/14 10:56:19;;;;;;;1.40;0.80;;;28.80;60.10;;;;;;5015602;28;20483;-79
2022/06/14 10:59:22;;;;;;;1.40;0.80;;;28.90;59.20;;;;;;5038726;28;20938;-80
2022/06/14 11:01:57;;;;;;;1.43;0.80;;;29.10;57.60;;;;;;5027290;28;20476;-80
2022/06/14 11:04:33;;;;;;;1.40;0.80;;;28.90;56.30;;;;;;5026883;28;20604;-81
2022/06/14 11:07:28;;;;;;;1.47;0.80;;;28.70;59.60;;;;;;5035638;28;20491;-81
2022/06/14 11:10:19;;;;;;;1.47;0.90;;;28.70;57.40;;;;;;5030204;28;20964;-80
2022/06/14 11:12:58;;;;;;;1.40;0.80;;;29.00;58.40;;;;;;5034600;28;20490;-80
2022/06/14 11:15:33;;;;;;;1.43;0.80;;;29.30;59.10;;;;;;5035117;28;20946;-81
2022/06/14 11:18:21;;;;;;;1.43;0.80;;;29.30;58.20;;;;;;5028835;28;20481;-80
2022/06/14 11:20:57;;;;;;;1.47;0.87;;;29.40;56.80;;;;;;5019464;28;20554;-80
2022/06/14 11:23:33;;;;;;;1.43;0.80;;;29.00;55.70;;;;;;5048353;28;20584;-80
2022/06/14 11:26:14;;;;;;;1.47;0.80;;;29.20;58.40;;;;;;5033853;28;20550;-79
2022/06/14 11:28:49;;;;;;;1.47;0.80;;;29.20;55.70;;;;;;5026636;28;20474;-79
2022/06/14 11:31:24;;;;;;;1.40;0.80;;;28.90;54.50;;;;;;5024794;28;20516;-79
2022/06/14 11:34:07;;;;;;;1.40;0.80;;;28.20;56.30;;;;;;5042531;28;20581;-79
2022/06/14 11:36:56;;;;;;;1.43;0.80;;;27.90;56.70;;;;;;5031405;28;20478;-78
2022/06/14 11:39:32;;;;;;;1.50;0.80;;;28.10;60.50;;;;;;5027682;28;20466;-78
2022/06/14 11:42:05;;;;;;;1.43;0.83;;;28.10;58.60;;;;;;5030946;28;20560;-78
2022/06/14 11:44:48;;;;;;;1.47;0.80;;;28.20;58.30;;;;;;5038770;28;20491;-79
2022/06/14 11:47:25;;;;;;;1.47;0.80;;;28.30;59.00;;;;;;5029739;28;20533;-77
2022/06/14 11:49:59;;;;;;;1.43;0.80;;;28.30;58.70;;;;;;5015350;28;20905;-77
2022/06/14 11:52:59;;;;;;;1.47;0.80;;;28.40;59.20;;;;;;5029189;28;20489;-77
2022/06/14 11:55:32;;;;;;;1.40;0.80;;;28.60;58.40;;;;;;5027652;28;20467;-77
2022/06/14 11:58:11;;;;;;;1.40;0.83;;;29.00;58.40;;;;;;5030541;28;21018;-78
2022/06/14 12:00:49;;;;;;;1.67;1.10;;;29.20;55.80;;;;;;5023535;28;20695;-78
2022/06/14 12:03:36;;;;;;;1.43;0.80;;;29.20;57.90;;;;;;5017303;28;20483;-78
2022/06/14 12:06:08;;;;;;;1.40;0.80;;;29.10;53.60;;;;;;5031113;28;20473;-78
2022/06/14 12:09:08;;;;;;;1.40;0.80;;;28.70;57.00;;;;;;5030831;28;20471;-77
2022/06/14 12:11:40;;;;;;;1.40;0.80;;;28.70;57.60;;;;;;5028490;28;20985;-78
2022/06/14 12:14:32;;;;;;;1.47;0.90;;;29.20;57.10;;;;;;5031642;28;20827;-78
2022/06/14 12:17:10;;;;;;;1.40;0.80;;;29.60;57.20;;;;;;5026349;28;20488;-77
2022/06/14 12:19:37;;;;;;;1.47;0.80;;;29.70;55.90;;;;;;5031626;28;20479;-78
2022/06/14 12:27:42;;;;;;;1.47;0.80;;;29.50;55.90;;;;;;5031814;28;20620;-78
2022/06/14 12:30:11;;;;;;;1.47;0.80;;;29.70;57.20;;;;;;5025717;28;20458;-77
2022/06/14 12:32:42;;;;;;;1.43;0.90;;;29.90;57.60;;;;;;5026259;28;20473;-77
2022/06/14 12:35:14;;;;;;;1.50;0.90;;;29.80;57.60;;;;;;5030107;28;20230;-78
2022/06/14 12:37:48;;;;;;;1.40;0.80;;;29.70;57.30;;;;;;5027037;28;20200;-78
2022/06/14 12:40:24;;;;;;;1.43;0.80;;;29.60;58.30;;;;;;5027934;28;20482;-77
2022/06/14 12:43:01;;;;;;;1.47;0.80;;;29.60;56.20;;;;;;5031819;28;20227;-77
2022/06/14 12:45:34;;;;;;;1.40;0.80;;;29.70;56.40;;;;;;5027901;28;20778;-77
2022/06/14 12:48:15;;;;;;;1.40;0.80;;;29.90;55.10;;;;;;5028846;28;20201;-77
2022/06/14 12:50:45;;;;;;;1.40;0.80;;;29.80;55.40;;;;;;5018659;28;20226;-77
2022/06/14 12:53:18;;;;;;;1.40;0.80;;;29.70;56.80;;;;;;5031514;28;20234;-77
2022/06/14 12:55:50;;;;;;;1.40;0.80;;;29.80;55.50;;;;;;5027257;28;20209;-78
2022/06/14 12:58:34;;;;;;;1.43;0.80;;;29.90;55.60;;;;;;5016731;28;20486;-77
2022/06/14 13:01:09;;;;;;;1.40;0.80;;;30.10;55.20;;;;;;5026578;28;20243;-78
2022/06/14 13:03:44;;;;;;;1.43;0.80;;;30.10;53.60;;;;;;5025784;28;20227;-77
2022/06/14 13:06:35;;;;;;;1.40;0.80;;;30.20;53.20;;;;;;5020875;28;21002;-77
2022/06/14 13:09:08;;;;;;;1.47;0.80;;;30.10;53.20;;;;;;5020107;28;20915;-77
2022/06/14 13:11:44;;;;;;;1.43;0.80;;;30.40;54.40;;;;;;5023792;28;20249;-77
2022/06/14 13:14:19;;;;;;;1.43;0.80;;;30.50;55.30;;;;;;5034794;28;20223;-77
2022/06/14 13:16:58;;;;;;;1.40;0.80;;;30.50;53.50;;;;;;5024687;28;20361;-78
2022/06/14 13:19:34;;;;;;;1.47;0.80;;;30.60;53.00;;;;;;5024336;28;20244;-77
2022/06/14 13:22:18;;;;;;;1.40;0.80;;;30.50;52.70;;;;;;5031418;28;20203;-78
2022/06/14 13:24:59;;;;;;;1.43;0.80;;;30.50;54.50;;;;;;5028304;28;20585;-77
2022/06/14 13:27:38;;;;;;;1.40;0.80;;;30.40;54.20;;;;;;5028811;28;20247;-78
2022/06/14 13:30:14;;;;;;;1.50;0.80;;;30.50;53.70;;;;;;5027877;28;20207;-78
2022/06/14 13:33:03;;;;;;;1.43;0.80;;;30.50;53.40;;;;;;5030812;28;20237;-78
2022/06/14 13:35:52;;;;;;;1.40;0.80;;;30.60;53.00;;;;;;5027202;28;20246;-77
2022/06/14 13:38:30;;;;;;;1.40;0.80;;;30.70;54.70;;;;;;5025562;28;20695;-78
2022/06/14 13:41:07;;;;;;;1.47;0.80;;;30.20;52.80;;;;;;5027881;28;20745;-78
2022/06/14 13:43:39;;;;;;;1.40;0.80;;;29.80;53.20;;;;;;5026527;28;20490;-77
2022/06/14 13:46:16;;;;;;;1.40;0.80;;;29.90;54.50;;;;;;5019206;28;20519;-79
2022/06/14 13:48:47;;;;;;;1.40;0.90;;;29.90;55.20;;;;;;5033523;28;20208;-77
2022/06/14 13:51:31;;;;;;;1.40;0.80;;;30.00;53.50;;;;;;5026051;28;20962;-79
2022/06/14 13:54:06;;;;;;;1.40;0.80;;;30.00;53.70;;;;;;5026828;28;20998;-78